sensor_id;sensor_type;location;lat;lon;timestamp;pressure;altitude;pressure_sealevel;temperature;humidity
71857;BME280;63344;46.980;28.882;2023-03-22T00:01:15;100621.09;;;9.12;75.97
71857;BME280;63344;46.980;28.882;2023-03-22T00:03:44;100627.41;;;9.08;76.16
71857;BME280;63344;46.980;28.882;2023-03-22T00:06:11;100630.25;;;9.02;75.91
71857;BME280;63344;46.980;28.882;2023-03-22T00:08:39;100631.31;;;8.96;76.12
71857;BME280;63344;46.980;28.882;2023-03-22T00:11:07;100633.28;;;8.90;75.77
71857;BME280;63344;46.980;28.882;2023-03-22T00:13:35;100630.88;;;8.82;75.77
71857;BME280;63344;46.980;28.882;2023-03-22T00:16:04;100636.34;;;8.77;75.57
71857;BME280;63344;46.980;28.882;2023-03-22T00:18:32;100628.47;;;8.74;75.84
71857;BME280;63344;46.980;28.882;2023-03-22T00:21:00;100625.00;;;8.72;75.75
71857;BME280;63344;46.980;28.882;2023-03-22T00:23:28;100631.38;;;8.67;76.10
71857;BME280;63344;46.980;28.882;2023-03-22T00:25:55;100631.44;;;8.65;76.05
71857;BME280;63344;46.980;28.882;2023-03-22T00:28:24;100640.31;;;8.63;76.40
71857;BME280;63344;46.980;28.882;2023-03-22T00:30:56;100636.91;;;8.59;77.03
71857;BME280;63344;46.980;28.882;2023-03-22T00:33:27;100641.38;;;8.57;77.21
71857;BME280;63344;46.980;28.882;2023-03-22T00:36:09;100638.78;;;8.55;77.21
71857;BME280;63344;46.980;28.882;2023-03-22T00:38:37;100645.13;;;8.50;76.83
71857;BME280;63344;46.980;28.882;2023-03-22T00:41:18;100636.41;;;8.46;77.15
71857;BME280;63344;46.980;28.882;2023-03-22T00:43:52;100629.53;;;8.39;77.07
71857;BME280;63344;46.980;28.882;2023-03-22T00:46:20;100631.41;;;8.35;77.06
71857;BME280;63344;46.980;28.882;2023-03-22T00:48:47;100630.59;;;8.33;77.27
71857;BME280;63344;46.980;28.882;2023-03-22T00:51:15;100632.66;;;8.22;77.24
71857;BME280;63344;46.980;28.882;2023-03-22T00:53:50;100624.91;;;8.16;77.37
71857;BME280;63344;46.980;28.882;2023-03-22T00:56:19;100621.56;;;8.09;77.95
71857;BME280;63344;46.980;28.882;2023-03-22T00:58:49;100640.91;;;8.11;78.55
71857;BME280;63344;46.980;28.882;2023-03-22T01:01:17;100638.25;;;8.13;78.63
71857;BME280;63344;46.980;28.882;2023-03-22T01:03:44;100619.00;;;8.06;79.06
71857;BME280;63344;46.980;28.882;2023-03-22T01:06:17;100630.41;;;8.08;78.56
71857;BME280;63344;46.980;28.882;2023-03-22T01:08:45;100634.84;;;8.08;78.62
71857;BME280;63344;46.980;28.882;2023-03-22T01:11:15;100626.16;;;8.03;78.63
71857;BME280;63344;46.980;28.882;2023-03-22T01:13:42;100619.19;;;8.00;78.99
71857;BME280;63344;46.980;28.882;2023-03-22T01:16:11;100616.53;;;8.00;78.87
71857;BME280;63344;46.980;28.882;2023-03-22T01:18:38;100618.31;;;8.00;79.30
71857;BME280;63344;46.980;28.882;2023-03-22T01:21:06;100617.50;;;7.97;79.47
71857;BME280;63344;46.980;28.882;2023-03-22T01:23:35;100626.31;;;7.96;79.45
71857;BME280;63344;46.980;28.882;2023-03-22T01:26:03;100622.09;;;7.91;79.48
71857;BME280;63344;46.980;28.882;2023-03-22T01:28:31;100623.94;;;7.89;79.65
71857;BME280;63344;46.980;28.882;2023-03-22T01:31:01;100613.50;;;7.83;79.81
71857;BME280;63344;46.980;28.882;2023-03-22T01:33:29;100616.19;;;7.81;79.72
71857;BME280;63344;46.980;28.882;2023-03-22T01:35:57;100613.66;;;7.76;79.39
71857;BME280;63344;46.980;28.882;2023-03-22T01:38:25;100605.88;;;7.72;79.73
71857;BME280;63344;46.980;28.882;2023-03-22T01:40:52;100619.13;;;7.70;79.66
71857;BME280;63344;46.980;28.882;2023-03-22T01:43:20;100618.31;;;7.67;80.05
71857;BME280;63344;46.980;28.882;2023-03-22T01:45:48;100607.91;;;7.61;79.62
71857;BME280;63344;46.980;28.882;2023-03-22T01:48:50;100615.91;;;7.59;80.05
71857;BME280;63344;46.980;28.882;2023-03-22T01:51:16;100612.50;;;7.54;80.32
71857;BME280;63344;46.980;28.882;2023-03-22T01:54:00;100607.31;;;7.51;80.39
71857;BME280;63344;46.980;28.882;2023-03-22T01:56:31;100618.75;;;7.51;80.70
71857;BME280;63344;46.980;28.882;2023-03-22T01:59:00;100616.16;;;7.50;80.32
71857;BME280;63344;46.980;28.882;2023-03-22T02:01:29;100618.00;;;7.46;80.42
71857;BME280;63344;46.980;28.882;2023-03-22T02:04:16;100623.31;;;7.45;80.68
71857;BME280;63344;46.980;28.882;2023-03-22T02:06:46;100617.44;;;7.35;80.70
71857;BME280;63344;46.980;28.882;2023-03-22T02:09:15;100628.09;;;7.30;80.79
71857;BME280;63344;46.980;28.882;2023-03-22T02:31:29;100626.56;;;6.84;82.12
71857;BME280;63344;46.980;28.882;2023-03-22T02:52:46;100648.53;;;6.46;83.53
71857;BME280;63344;46.980;28.882;2023-03-22T02:57:51;100648.69;;;6.40;83.57
71857;BME280;63344;46.980;28.882;2023-03-22T03:00:23;100644.31;;;6.37;83.54
71857;BME280;63344;46.980;28.882;2023-03-22T03:02:55;100646.94;;;6.37;83.62
71857;BME280;63344;46.980;28.882;2023-03-22T03:05:27;100653.16;;;6.34;83.50
71857;BME280;63344;46.980;28.882;2023-03-22T03:07:59;100653.25;;;6.31;83.87
71857;BME280;63344;46.980;28.882;2023-03-22T03:10:28;100651.53;;;6.29;83.76
71857;BME280;63344;46.980;28.882;2023-03-22T03:12:57;100652.50;;;6.25;84.04
71857;BME280;63344;46.980;28.882;2023-03-22T03:15:24;100651.72;;;6.21;83.88
71857;BME280;63344;46.980;28.882;2023-03-22T03:26:28;100662.44;;;6.12;83.99
71857;BME280;63344;46.980;28.882;2023-03-22T03:29:06;100666.03;;;6.08;84.16
71857;BME280;63344;46.980;28.882;2023-03-22T03:31:40;100668.75;;;6.03;84.29
71857;BME280;63344;46.980;28.882;2023-03-22T03:34:22;100668.81;;;6.00;84.49
71857;BME280;63344;46.980;28.882;2023-03-22T03:37:13;100663.63;;;5.94;84.61
71857;BME280;63344;46.980;28.882;2023-03-22T03:39:49;100665.50;;;5.87;84.84
71857;BME280;63344;46.980;28.882;2023-03-22T03:42:20;100665.56;;;5.84;85.01
71857;BME280;63344;46.980;28.882;2023-03-22T03:44:49;100673.47;;;5.84;85.19
71857;BME280;63344;46.980;28.882;2023-03-22T03:47:17;100668.22;;;5.81;85.46
71857;BME280;63344;46.980;28.882;2023-03-22T03:49:45;100677.16;;;5.75;85.64
71857;BME280;63344;46.980;28.882;2023-03-22T03:52:12;100678.94;;;5.73;85.42
71857;BME280;63344;46.980;28.882;2023-03-22T03:54:40;100677.16;;;5.74;85.64
71857;BME280;63344;46.980;28.882;2023-03-22T03:57:10;100672.00;;;5.68;85.64
71857;BME280;63344;46.980;28.882;2023-03-22T03:59:38;100678.97;;;5.70;85.36
71857;BME280;63344;46.980;28.882;2023-03-22T04:02:05;100680.75;;;5.70;85.42
71857;BME280;63344;46.980;28.882;2023-03-22T04:04:33;100679.00;;;5.69;85.43
71857;BME280;63344;46.980;28.882;2023-03-22T04:07:03;100684.25;;;5.70;85.66
71857;BME280;63344;46.980;28.882;2023-03-22T04:09:34;100686.06;;;5.67;85.89
71857;BME280;63344;46.980;28.882;2023-03-22T04:12:02;100675.63;;;5.62;86.59
71857;BME280;63344;46.980;28.882;2023-03-22T04:14:32;100683.47;;;5.65;86.24
71857;BME280;63344;46.980;28.882;2023-03-22T04:16:59;100686.97;;;5.67;86.33
71857;BME280;63344;46.980;28.882;2023-03-22T04:19:27;100688.66;;;5.70;86.78
71857;BME280;63344;46.980;28.882;2023-03-22T04:21:57;100694.88;;;5.66;86.55
71857;BME280;63344;46.980;28.882;2023-03-22T04:24:25;100691.41;;;5.64;86.34
71857;BME280;63344;46.980;28.882;2023-03-22T04:26:53;100697.56;;;5.61;86.29
71857;BME280;63344;46.980;28.882;2023-03-22T04:29:20;100701.13;;;5.60;86.26
71857;BME280;63344;46.980;28.882;2023-03-22T04:31:50;100705.53;;;5.59;86.58
71857;BME280;63344;46.980;28.882;2023-03-22T04:34:22;100704.69;;;5.57;86.27
71857;BME280;63344;46.980;28.882;2023-03-22T04:36:49;100708.91;;;5.66;86.95
71857;BME280;63344;46.980;28.882;2023-03-22T04:39:19;100710.63;;;5.69;87.03
71857;BME280;63344;46.980;28.882;2023-03-22T04:41:46;100711.34;;;5.77;87.42
71857;BME280;63344;46.980;28.882;2023-03-22T04:44:16;100706.97;;;5.77;87.27
71857;BME280;63344;46.980;28.882;2023-03-22T04:46:43;100730.50;;;5.88;87.00
71857;BME280;63344;46.980;28.882;2023-03-22T04:49:11;100714.81;;;5.81;87.28
71857;BME280;63344;46.980;28.882;2023-03-22T04:51:39;100715.63;;;5.84;87.30
71857;BME280;63344;46.980;28.882;2023-03-22T04:54:07;100729.53;;;5.92;87.31
71857;BME280;63344;46.980;28.882;2023-03-22T04:56:34;100725.09;;;5.97;87.09
71857;BME280;63344;46.980;28.882;2023-03-22T04:59:02;100733.75;;;6.04;86.94
71857;BME280;63344;46.980;28.882;2023-03-22T05:01:29;100743.31;;;6.10;86.80
71857;BME280;63344;46.980;28.882;2023-03-22T05:03:56;100738.91;;;6.12;86.56
71857;BME280;63344;46.980;28.882;2023-03-22T05:06:24;100744.16;;;6.13;86.25
71857;BME280;63344;46.980;28.882;2023-03-22T05:08:56;100737.19;;;6.09;85.55
71857;BME280;63344;46.980;28.882;2023-03-22T05:11:28;100739.59;;;6.22;85.41
71857;BME280;63344;46.980;28.882;2023-03-22T05:13:56;100728.22;;;6.20;85.30
71857;BME280;63344;46.980;28.882;2023-03-22T05:16:24;100742.13;;;6.28;85.13
71857;BME280;63344;46.980;28.882;2023-03-22T05:18:55;100745.59;;;6.30;84.70
71857;BME280;63344;46.980;28.882;2023-03-22T05:21:24;100738.56;;;6.29;84.99
71857;BME280;63344;46.980;28.882;2023-03-22T05:23:56;100750.66;;;6.41;84.88
71857;BME280;63344;46.980;28.882;2023-03-22T05:26:24;100754.97;;;6.45;84.72
71857;BME280;63344;46.980;28.882;2023-03-22T05:28:53;100754.88;;;6.49;84.45
71857;BME280;63344;46.980;28.882;2023-03-22T05:31:24;100758.28;;;6.54;83.92
71857;BME280;63344;46.980;28.882;2023-03-22T05:33:55;100771.47;;;6.56;83.59
71857;BME280;63344;46.980;28.882;2023-03-22T05:36:25;100772.16;;;6.64;83.81
71857;BME280;63344;46.980;28.882;2023-03-22T05:39:04;100772.03;;;6.70;83.78
71857;BME280;63344;46.980;28.882;2023-03-22T05:41:31;100768.53;;;6.71;83.90
71857;BME280;63344;46.980;28.882;2023-03-22T05:44:03;100785.78;;;6.86;83.86
71857;BME280;63344;46.980;28.882;2023-03-22T05:46:30;100781.19;;;6.96;83.36
71857;BME280;63344;46.980;28.882;2023-03-22T05:49:03;100791.44;;;7.11;83.20
71857;BME280;63344;46.980;28.882;2023-03-22T05:51:46;100785.91;;;7.22;82.82
71857;BME280;63344;46.980;28.882;2023-03-22T05:55:47;100795.00;;;7.49;83.19
71857;BME280;63344;46.980;28.882;2023-03-22T05:58:41;100785.94;;;7.60;82.92
71857;BME280;63344;46.980;28.882;2023-03-22T06:01:20;100783.03;;;7.69;82.01
71857;BME280;63344;46.980;28.882;2023-03-22T06:04:32;100797.56;;;7.88;81.25
71857;BME280;63344;46.980;28.882;2023-03-22T06:07:00;100796.63;;;7.91;80.53
71857;BME280;63344;46.980;28.882;2023-03-22T06:09:27;100804.28;;;8.02;80.42
71857;BME280;63344;46.980;28.882;2023-03-22T06:11:57;100800.44;;;8.15;79.88
71857;BME280;63344;46.980;28.882;2023-03-22T06:14:25;100792.22;;;8.24;79.18
71857;BME280;63344;46.980;28.882;2023-03-22T06:16:54;100797.25;;;8.35;79.05
71857;BME280;63344;46.980;28.882;2023-03-22T06:19:22;100790.84;;;8.45;78.83
71857;BME280;63344;46.980;28.882;2023-03-22T06:21:55;100807.09;;;8.63;78.68
71857;BME280;63344;46.980;28.882;2023-03-22T06:24:22;100794.56;;;8.69;78.19
71857;BME280;63344;46.980;28.882;2023-03-22T06:26:50;100809.03;;;8.89;78.12
71857;BME280;63344;46.980;28.882;2023-03-22T06:29:19;100800.84;;;8.96;77.34
71857;BME280;63344;46.980;28.882;2023-03-22T06:31:47;100813.66;;;9.12;76.77
71857;BME280;63344;46.980;28.882;2023-03-22T06:34:28;100808.88;;;9.25;75.52
71857;BME280;63344;46.980;28.882;2023-03-22T06:36:58;100814.72;;;9.34;74.31
71857;BME280;63344;46.980;28.882;2023-03-22T06:39:26;100809.09;;;9.45;74.31
71857;BME280;63344;46.980;28.882;2023-03-22T06:41:54;100814.91;;;9.56;74.16
71857;BME280;63344;46.980;28.882;2023-03-22T06:44:22;100812.00;;;9.66;72.50
71857;BME280;63344;46.980;28.882;2023-03-22T06:47:02;100822.19;;;9.78;72.50
71857;BME280;63344;46.980;28.882;2023-03-22T06:49:53;100821.72;;;9.93;72.33
71857;BME280;63344;46.980;28.882;2023-03-22T06:52:24;100814.97;;;10.10;71.80
71857;BME280;63344;46.980;28.882;2023-03-22T06:54:53;100815.44;;;10.23;70.82
71857;BME280;63344;46.980;28.882;2023-03-22T06:57:25;100824.69;;;10.38;70.25
71857;BME280;63344;46.980;28.882;2023-03-22T06:59:57;100826.09;;;10.48;68.93
71857;BME280;63344;46.980;28.882;2023-03-22T07:02:26;100821.81;;;10.44;69.10
71857;BME280;63344;46.980;28.882;2023-03-22T07:04:57;100825.28;;;10.46;67.83
71857;BME280;63344;46.980;28.882;2023-03-22T07:07:25;100819.91;;;10.47;68.33
71857;BME280;63344;46.980;28.882;2023-03-22T07:09:52;100827.72;;;10.52;68.80
71857;BME280;63344;46.980;28.882;2023-03-22T07:12:20;100824.84;;;10.58;68.64
71857;BME280;63344;46.980;28.882;2023-03-22T07:14:50;100827.75;;;10.75;69.13
71857;BME280;63344;46.980;28.882;2023-03-22T07:17:22;100825.47;;;10.90;69.24
71857;BME280;63344;46.980;28.882;2023-03-22T07:19:53;100826.41;;;11.12;69.25
71857;BME280;63344;46.980;28.882;2023-03-22T07:22:24;100831.94;;;11.30;68.73
71857;BME280;63344;46.980;28.882;2023-03-22T07:24:51;100826.97;;;11.44;67.51
71857;BME280;63344;46.980;28.882;2023-03-22T07:27:26;100826.59;;;11.53;66.92
71857;BME280;63344;46.980;28.882;2023-03-22T07:29:56;100828.00;;;11.62;66.62
71857;BME280;63344;46.980;28.882;2023-03-22T07:32:24;100831.91;;;11.75;64.83
71857;BME280;63344;46.980;28.882;2023-03-22T07:34:52;100832.56;;;11.82;65.61
71857;BME280;63344;46.980;28.882;2023-03-22T07:37:20;100832.78;;;11.98;65.48
71857;BME280;63344;46.980;28.882;2023-03-22T07:39:56;100830.50;;;12.11;64.21
71857;BME280;63344;46.980;28.882;2023-03-22T07:42:24;100834.56;;;12.20;64.67
71857;BME280;63344;46.980;28.882;2023-03-22T07:44:55;100832.38;;;12.29;64.10
71857;BME280;63344;46.980;28.882;2023-03-22T07:47:24;100831.84;;;12.42;63.60
71857;BME280;63344;46.980;28.882;2023-03-22T07:50:07;100837.81;;;12.48;62.53
71857;BME280;63344;46.980;28.882;2023-03-22T07:53:05;100827.16;;;12.48;63.11
71857;BME280;63344;46.980;28.882;2023-03-22T07:55:33;100826.94;;;12.53;62.13
71857;BME280;63344;46.980;28.882;2023-03-22T07:58:04;100823.47;;;12.51;62.69
71857;BME280;63344;46.980;28.882;2023-03-22T08:00:42;100826.91;;;12.73;63.29
71857;BME280;63344;46.980;28.882;2023-03-22T08:03:11;100827.03;;;12.91;62.49
71857;BME280;63344;46.980;28.882;2023-03-22T08:05:42;100822.16;;;13.01;61.76
71857;BME280;63344;46.980;28.882;2023-03-22T08:08:11;100822.16;;;13.20;60.98
71857;BME280;63344;46.980;28.882;2023-03-22T08:10:39;100816.41;;;13.29;61.03
71857;BME280;63344;46.980;28.882;2023-03-22T08:13:14;100810.59;;;13.40;60.92
71857;BME280;63344;46.980;28.882;2023-03-22T08:15:42;100811.50;;;13.58;60.55
71857;BME280;63344;46.980;28.882;2023-03-22T08:18:09;100813.69;;;13.86;60.59
71857;BME280;63344;46.980;28.882;2023-03-22T08:20:37;100809.00;;;13.91;59.70
71857;BME280;63344;46.980;28.882;2023-03-22T08:23:05;100807.84;;;14.14;59.63
71857;BME280;63344;46.980;28.882;2023-03-22T08:25:34;100804.16;;;14.17;57.79
71857;BME280;63344;46.980;28.882;2023-03-22T08:28:03;100809.63;;;14.13;57.69
71857;BME280;63344;46.980;28.882;2023-03-22T08:30:31;100806.72;;;14.35;57.72
71857;BME280;63344;46.980;28.882;2023-03-22T08:32:59;100804.72;;;14.91;55.94
71857;BME280;63344;46.980;28.882;2023-03-22T08:35:27;100807.53;;;15.69;55.15
71857;BME280;63344;46.980;28.882;2023-03-22T08:37:54;100802.94;;;16.33;52.57
71857;BME280;63344;46.980;28.882;2023-03-22T08:40:23;100807.84;;;16.86;51.17
71857;BME280;63344;46.980;28.882;2023-03-22T08:42:50;100812.91;;;17.61;51.21
71857;BME280;63344;46.980;28.882;2023-03-22T08:45:18;100803.63;;;18.34;49.65
71857;BME280;63344;46.980;28.882;2023-03-22T08:47:47;100811.31;;;19.04;48.11
71857;BME280;63344;46.980;28.882;2023-03-22T08:50:26;100807.28;;;19.72;46.56
71857;BME280;63344;46.980;28.882;2023-03-22T08:52:54;100813.50;;;20.21;44.58
71857;BME280;63344;46.980;28.882;2023-03-22T08:55:22;100818.75;;;20.11;41.53
71857;BME280;63344;46.980;28.882;2023-03-22T08:57:50;100815.81;;;20.14;41.95
71857;BME280;63344;46.980;28.882;2023-03-22T09:00:19;100816.75;;;20.37;41.74
71857;BME280;63344;46.980;28.882;2023-03-22T09:02:47;100806.56;;;20.65;40.98
71857;BME280;63344;46.980;28.882;2023-03-22T09:05:31;100794.03;;;20.86;40.59
71857;BME280;63344;46.980;28.882;2023-03-22T09:08:02;100805.81;;;20.97;39.93
71857;BME280;63344;46.980;28.882;2023-03-22T09:10:32;100801.03;;;20.78;39.85
71857;BME280;63344;46.980;28.882;2023-03-22T09:13:05;100794.94;;;20.87;39.58
71857;BME280;63344;46.980;28.882;2023-03-22T09:15:34;100795.84;;;21.42;39.60
71857;BME280;63344;46.980;28.882;2023-03-22T09:18:02;100796.28;;;22.14;38.99
71857;BME280;63344;46.980;28.882;2023-03-22T09:20:29;100793.56;;;22.67;37.33
71857;BME280;63344;46.980;28.882;2023-03-22T09:22:57;100796.63;;;22.62;36.02
71857;BME280;63344;46.980;28.882;2023-03-22T09:25:26;100796.31;;;22.77;36.65
71857;BME280;63344;46.980;28.882;2023-03-22T09:27:54;100791.34;;;22.82;36.35
71857;BME280;63344;46.980;28.882;2023-03-22T09:30:23;100784.47;;;22.78;35.32
71857;BME280;63344;46.980;28.882;2023-03-22T09:33:05;100795.13;;;22.48;35.88
71857;BME280;63344;46.980;28.882;2023-03-22T09:35:40;100789.53;;;22.61;35.98
71857;BME280;63344;46.980;28.882;2023-03-22T09:38:10;100790.75;;;22.78;35.60
71857;BME280;63344;46.980;28.882;2023-03-22T09:40:49;100787.69;;;23.23;34.63
71857;BME280;63344;46.980;28.882;2023-03-22T09:43:19;100786.16;;;23.40;34.04
71857;BME280;63344;46.980;28.882;2023-03-22T09:45:49;100792.19;;;23.54;33.75
71857;BME280;63344;46.980;28.882;2023-03-22T09:48:26;100782.16;;;23.85;33.87
71857;BME280;63344;46.980;28.882;2023-03-22T09:50:59;100782.69;;;24.28;32.46
71857;BME280;63344;46.980;28.882;2023-03-22T09:53:31;100782.69;;;24.57;32.08
71857;BME280;63344;46.980;28.882;2023-03-22T09:56:41;100780.25;;;25.01;31.69
71857;BME280;63344;46.980;28.882;2023-03-22T09:59:16;100785.13;;;25.35;30.55
71857;BME280;63344;46.980;28.882;2023-03-22T10:01:58;100778.16;;;25.68;29.74
71857;BME280;63344;46.980;28.882;2023-03-22T10:07:33;100774.66;;;25.58;29.80
71857;BME280;63344;46.980;28.882;2023-03-22T10:10:19;100772.59;;;26.23;29.19
71857;BME280;63344;46.980;28.882;2023-03-22T10:15:33;100761.44;;;27.64;28.38
71857;BME280;63344;46.980;28.882;2023-03-22T10:18:05;100768.00;;;28.20;27.13
71857;BME280;63344;46.980;28.882;2023-03-22T10:20:49;100753.75;;;27.76;25.94
71857;BME280;63344;46.980;28.882;2023-03-22T10:23:27;100753.16;;;27.31;26.44
71857;BME280;63344;46.980;28.882;2023-03-22T10:25:57;100761.47;;;26.87;27.56
71857;BME280;63344;46.980;28.882;2023-03-22T10:28:35;100755.13;;;26.08;27.60
71857;BME280;63344;46.980;28.882;2023-03-22T10:31:04;100747.72;;;25.64;28.33
71857;BME280;63344;46.980;28.882;2023-03-22T10:33:45;100747.41;;;25.68;28.55
71857;BME280;63344;46.980;28.882;2023-03-22T10:36:23;100750.72;;;25.43;28.83
71857;BME280;63344;46.980;28.882;2023-03-22T10:41:46;100740.47;;;25.00;29.48
71857;BME280;63344;46.980;28.882;2023-03-22T10:47:53;100739.69;;;24.42;29.98
71857;BME280;63344;46.980;28.882;2023-03-22T10:50:29;100724.91;;;24.64;29.58
71857;BME280;63344;46.980;28.882;2023-03-22T10:55:58;100730.16;;;23.90;30.62
71857;BME280;63344;46.980;28.882;2023-03-22T10:58:31;100736.56;;;23.98;30.59
71857;BME280;63344;46.980;28.882;2023-03-22T11:01:09;100734.84;;;24.27;30.18
71857;BME280;63344;46.980;28.882;2023-03-22T11:06:19;100717.13;;;24.79;29.33
71857;BME280;63344;46.980;28.882;2023-03-22T11:08:51;100721.06;;;24.57;29.13
71857;BME280;63344;46.980;28.882;2023-03-22T11:11:34;100711.44;;;24.73;29.69
71857;BME280;63344;46.980;28.882;2023-03-22T11:14:15;100708.03;;;24.98;28.76
71857;BME280;63344;46.980;28.882;2023-03-22T11:17:07;100709.22;;;24.86;28.37
71857;BME280;63344;46.980;28.882;2023-03-22T11:19:38;100712.00;;;24.10;28.87
71857;BME280;63344;46.980;28.882;2023-03-22T11:22:28;100706.28;;;23.54;29.67
71857;BME280;63344;46.980;28.882;2023-03-22T11:24:59;100706.09;;;23.17;30.29
71857;BME280;63344;46.980;28.882;2023-03-22T11:27:31;100691.25;;;22.80;30.75
71857;BME280;63344;46.980;28.882;2023-03-22T11:30:20;100699.41;;;22.50;31.46
71857;BME280;63344;46.980;28.882;2023-03-22T11:32:48;100694.00;;;22.50;32.28
71857;BME280;63344;46.980;28.882;2023-03-22T11:35:29;100694.34;;;22.66;31.23
71857;BME280;63344;46.980;28.882;2023-03-22T11:38:00;100693.63;;;22.33;31.13
71857;BME280;63344;46.980;28.882;2023-03-22T11:40:29;100697.69;;;22.06;31.03
71857;BME280;63344;46.980;28.882;2023-03-22T11:43:15;100686.66;;;21.98;31.29
71857;BME280;63344;46.980;28.882;2023-03-22T11:45:49;100675.00;;;21.98;31.40
71857;BME280;63344;46.980;28.882;2023-03-22T11:48:21;100683.97;;;22.19;31.53
71857;BME280;63344;46.980;28.882;2023-03-22T11:50:57;100682.19;;;23.51;30.51
71857;BME280;63344;46.980;28.882;2023-03-22T11:53:32;100674.19;;;24.55;29.28
71857;BME280;63344;46.980;28.882;2023-03-22T11:56:20;100670.19;;;24.59;28.88
71857;BME280;63344;46.980;28.882;2023-03-22T11:59:05;100664.84;;;24.95;28.17
71857;BME280;63344;46.980;28.882;2023-03-22T12:01:45;100672.88;;;25.42;27.83
71857;BME280;63344;46.980;28.882;2023-03-22T12:04:18;100654.53;;;24.71;28.15
71857;BME280;63344;46.980;28.882;2023-03-22T12:06:51;100666.31;;;24.90;27.92
71857;BME280;63344;46.980;28.882;2023-03-22T12:09:27;100667.47;;;24.87;28.01
71857;BME280;63344;46.980;28.882;2023-03-22T12:11:59;100661.97;;;24.22;28.02
71857;BME280;63344;46.980;28.882;2023-03-22T12:14:42;100671.78;;;23.46;29.30
71857;BME280;63344;46.980;28.882;2023-03-22T12:17:47;100666.28;;;22.67;30.70
71857;BME280;63344;46.980;28.882;2023-03-22T12:20:42;100659.59;;;22.40;31.17
71857;BME280;63344;46.980;28.882;2023-03-22T12:23:16;100656.22;;;22.48;30.94
71857;BME280;63344;46.980;28.882;2023-03-22T12:26:13;100652.41;;;23.01;30.58
71857;BME280;63344;46.980;28.882;2023-03-22T12:29:03;100648.31;;;24.04;29.08
71857;BME280;63344;46.980;28.882;2023-03-22T12:31:39;100644.19;;;24.84;27.99
71857;BME280;63344;46.980;28.882;2023-03-22T12:34:16;100641.31;;;24.11;28.79
71857;BME280;63344;46.980;28.882;2023-03-22T12:36:50;100644.88;;;24.02;29.24
71857;BME280;63344;46.980;28.882;2023-03-22T12:39:23;100659.78;;;23.39;28.50
71857;BME280;63344;46.980;28.882;2023-03-22T12:41:56;100641.50;;;23.32;28.63
71857;BME280;63344;46.980;28.882;2023-03-22T12:44:36;100638.78;;;23.51;29.27
71857;BME280;63344;46.980;28.882;2023-03-22T12:47:38;100638.66;;;24.39;27.63
71857;BME280;63344;46.980;28.882;2023-03-22T12:50:16;100638.03;;;23.98;28.04
71857;BME280;63344;46.980;28.882;2023-03-22T12:52:49;100638.94;;;23.11;28.42
71857;BME280;63344;46.980;28.882;2023-03-22T12:55:37;100634.47;;;22.28;29.94
71857;BME280;63344;46.980;28.882;2023-03-22T12:58:24;100637.66;;;21.92;30.83
71857;BME280;63344;46.980;28.882;2023-03-22T13:01:00;100636.19;;;22.08;31.13
71857;BME280;63344;46.980;28.882;2023-03-22T13:03:48;100636.91;;;23.03;30.78
71857;BME280;63344;46.980;28.882;2023-03-22T13:20:38;100629.22;;;21.32;32.60
71857;BME280;63344;46.980;28.882;2023-03-22T13:27:56;100640.09;;;19.49;35.66
71857;BME280;63344;46.980;28.882;2023-03-22T13:30:49;100648.31;;;18.87;36.77
71857;BME280;63344;46.980;28.882;2023-03-22T13:33:28;100632.78;;;18.54;37.47
71857;BME280;63344;46.980;28.882;2023-03-22T13:36:00;100631.63;;;18.32;37.92
71857;BME280;63344;46.980;28.882;2023-03-22T13:38:36;100643.56;;;18.15;38.34
71857;BME280;63344;46.980;28.882;2023-03-22T13:41:26;100636.59;;;18.00;38.59
71857;BME280;63344;46.980;28.882;2023-03-22T13:44:30;100636.47;;;17.88;39.59
71857;BME280;63344;46.980;28.882;2023-03-22T13:47:02;100634.69;;;17.75;39.81
71857;BME280;63344;46.980;28.882;2023-03-22T13:49:48;100629.31;;;17.62;40.81
71857;BME280;63344;46.980;28.882;2023-03-22T13:52:25;100633.38;;;17.55;40.29
71857;BME280;63344;46.980;28.882;2023-03-22T13:54:55;100637.78;;;17.56;40.29
71857;BME280;63344;46.980;28.882;2023-03-22T14:03:02;100642.44;;;17.39;40.65
71857;BME280;63344;46.980;28.882;2023-03-22T14:06:23;100652.66;;;17.34;41.01
71857;BME280;63344;46.980;28.882;2023-03-22T14:09:10;100644.78;;;17.31;40.56
71857;BME280;63344;46.980;28.882;2023-03-22T14:11:47;100642.97;;;17.31;40.85
71857;BME280;63344;46.980;28.882;2023-03-22T14:14:21;100641.47;;;17.27;40.69
71857;BME280;63344;46.980;28.882;2023-03-22T14:17:26;100648.09;;;17.22;40.93
71857;BME280;63344;46.980;28.882;2023-03-22T14:19:48;100645.34;;;17.09;41.29
71857;BME280;63344;46.980;28.882;2023-03-22T14:22:26;100638.09;;;16.97;41.46
71857;BME280;63344;46.980;28.882;2023-03-22T14:24:58;100649.16;;;16.92;42.03
71857;BME280;63344;46.980;28.882;2023-03-22T14:27:25;100654.69;;;16.89;41.89
71857;BME280;63344;46.980;28.882;2023-03-22T14:29:54;100632.28;;;16.76;42.25
71857;BME280;63344;46.980;28.882;2023-03-22T14:32:22;100644.38;;;16.83;42.45
71857;BME280;63344;46.980;28.882;2023-03-22T14:35:21;100644.56;;;16.80;42.94
71857;BME280;63344;46.980;28.882;2023-03-22T14:37:52;100647.31;;;16.78;43.03
71857;BME280;63344;46.980;28.882;2023-03-22T14:40:34;100657.00;;;16.81;43.16
71857;BME280;63344;46.980;28.882;2023-03-22T14:43:21;100646.66;;;16.75;43.09
71857;BME280;63344;46.980;28.882;2023-03-22T14:46:11;100651.25;;;16.72;43.11
71857;BME280;63344;46.980;28.882;2023-03-22T14:51:21;100648.19;;;16.79;43.76
71857;BME280;63344;46.980;28.882;2023-03-22T14:53:49;100634.41;;;16.70;44.18